createdAt,value
2018-04-30T00:00:27.320Z,24.00
2018-04-30T00:02:54.670Z,24.20
2018-04-30T00:05:22.805Z,24.30
2018-04-30T00:10:19.341Z,24.30
2018-04-30T00:17:43.454Z,23.60
2018-04-30T00:20:10.854Z,22.40
2018-04-30T00:22:38.993Z,22.00
2018-04-30T00:27:38.103Z,21.60
2018-04-30T00:30:05.533Z,21.50
2018-04-30T00:32:33.016Z,21.20
2018-04-30T00:35:01.237Z,20.70
2018-04-30T00:37:28.682Z,21.10
2018-04-30T00:44:53.406Z,21.60
2018-04-30T00:47:21.667Z,21.50
2018-04-30T00:49:49.311Z,21.20
2018-04-30T00:57:20.904Z,21.30
2018-04-30T01:02:17.438Z,19.90
2018-04-30T01:04:44.890Z,20.80
2018-04-30T01:07:13.097Z,20.90
2018-04-30T01:09:40.491Z,20.50
2018-04-30T01:12:08.706Z,19.80
2018-04-30T01:17:04.456Z,19.20
2018-04-30T01:22:00.966Z,19.60
2018-04-30T01:24:28.373Z,19.20
2018-04-30T01:26:56.483Z,19.00
2018-04-30T01:29:23.880Z,18.70
2018-04-30T01:31:51.996Z,18.40
2018-04-30T01:34:20.134Z,17.80
2018-04-30T01:36:47.567Z,17.70
2018-04-30T01:41:43.293Z,17.70
2018-04-30T01:44:11.435Z,17.80
2018-04-30T01:46:38.811Z,18.20
2018-04-30T01:51:35.733Z,17.90
2018-04-30T01:54:03.175Z,17.50
2018-04-30T01:56:30.590Z,17.50
2018-04-30T01:58:57.957Z,17.30
2018-04-30T02:01:25.435Z,17.50
2018-04-30T02:03:52.779Z,17.50
2018-04-30T02:06:21.075Z,17.20
2018-04-30T02:08:48.470Z,17.30
2018-04-30T02:11:15.895Z,17.00
2018-04-30T02:13:44.111Z,17.30
2018-04-30T02:16:11.570Z,17.30
2018-04-30T02:18:39.364Z,17.40
2018-04-30T02:21:06.821Z,17.20
2018-04-30T02:23:34.237Z,17.20
2018-04-30T02:26:01.595Z,16.90
2018-04-30T02:28:29.746Z,17.00
2018-04-30T02:30:57.251Z,17.10
2018-04-30T02:35:52.981Z,16.90
2018-04-30T02:38:20.404Z,16.70
2018-04-30T02:40:47.855Z,16.90
2018-04-30T02:43:15.239Z,17.10
2018-04-30T02:48:11.051Z,17.30
2018-04-30T02:55:35.124Z,16.40
2018-04-30T02:58:02.513Z,16.30
2018-04-30T03:00:30.651Z,16.20
2018-04-30T03:02:58.109Z,16.00
2018-04-30T03:07:54.667Z,16.20
2018-04-30T03:12:50.394Z,16.40
2018-04-30T03:15:17.876Z,16.40
2018-04-30T03:20:14.872Z,16.10
2018-04-30T03:22:43.117Z,16.00
2018-04-30T03:25:11.647Z,15.70
2018-04-30T03:27:39.794Z,15.70
2018-04-30T03:30:07.981Z,15.50
2018-04-30T03:32:36.172Z,15.30
2018-04-30T03:37:31.922Z,14.90
2018-04-30T03:39:59.308Z,14.70
2018-04-30T03:42:26.728Z,14.80
2018-04-30T03:44:54.885Z,15.10
2018-04-30T03:47:22.337Z,14.80
2018-04-30T03:49:50.491Z,14.40
2018-04-30T03:52:17.931Z,14.10
2018-04-30T03:54:45.520Z,14.70
2018-04-30T03:57:13.677Z,14.50
2018-04-30T04:02:22.476Z,14.30
2018-04-30T04:05:02.044Z,14.50
2018-04-30T04:09:57.707Z,15.50
2018-04-30T04:12:25.171Z,15.00
2018-04-30T04:14:52.595Z,14.90
2018-04-30T04:17:20.802Z,15.30
2018-04-30T04:19:49.047Z,16.40
2018-04-30T04:22:16.457Z,15.90
2018-04-30T04:24:44.601Z,15.70
2018-04-30T04:27:11.995Z,15.20
2018-04-30T04:29:39.367Z,15.00
2018-04-30T04:32:06.826Z,14.80
2018-04-30T04:34:35.307Z,14.50
2018-04-30T04:37:03.597Z,14.40
2018-04-30T04:39:31.045Z,14.30
2018-04-30T04:41:58.400Z,14.20
2018-04-30T04:44:26.556Z,14.50
2018-04-30T04:46:54.077Z,15.40
2018-04-30T04:49:21.499Z,16.50
2018-04-30T04:51:49.740Z,16.80
2018-04-30T04:54:17.226Z,17.10
2018-04-30T04:59:13.099Z,16.30
2018-04-30T05:04:08.826Z,15.80
2018-04-30T05:06:36.389Z,15.70
2018-04-30T05:09:04.529Z,15.00
2018-04-30T05:11:32.065Z,15.30
2018-04-30T05:13:59.858Z,15.10
2018-04-30T05:16:27.482Z,15.60
2018-04-30T05:18:54.970Z,15.00
2018-04-30T05:21:22.317Z,14.60
2018-04-30T05:23:50.507Z,14.40
2018-04-30T05:28:46.965Z,15.00
2018-04-30T05:31:15.144Z,14.90
2018-04-30T05:33:42.613Z,14.90
2018-04-30T05:38:38.485Z,14.30
2018-04-30T05:41:05.966Z,14.60
2018-04-30T05:46:01.764Z,14.70
2018-04-30T05:53:26.071Z,15.60
2018-04-30T05:55:54.244Z,15.30
2018-04-30T05:58:21.764Z,14.70
2018-04-30T06:00:49.921Z,14.70
2018-04-30T06:03:17.449Z,15.10
2018-04-30T06:05:45.773Z,15.60
2018-04-30T06:08:13.920Z,15.50
2018-04-30T06:13:09.637Z,15.30
2018-04-30T06:15:37.817Z,15.60
2018-04-30T06:18:05.261Z,15.60
2018-04-30T06:20:33.480Z,15.60
2018-04-30T06:23:01.705Z,15.90
2018-04-30T06:27:58.538Z,15.50
2018-04-30T06:30:26.595Z,16.00
2018-04-30T06:32:53.996Z,15.50
2018-04-30T06:40:17.954Z,17.20
2018-04-30T06:45:15.165Z,17.20
2018-04-30T06:47:43.297Z,17.40
2018-04-30T06:50:10.809Z,17.20
2018-04-30T06:52:38.164Z,17.10
2018-04-30T06:55:05.502Z,16.70
2018-04-30T06:57:33.618Z,17.30
2018-04-30T07:02:29.289Z,17.50
2018-04-30T07:07:25.148Z,17.50
2018-04-30T07:12:20.806Z,17.60
2018-04-30T07:14:48.968Z,17.20
2018-04-30T07:17:16.232Z,17.30
2018-04-30T07:19:44.315Z,18.10
2018-04-30T07:24:40.478Z,18.60
2018-04-30T07:29:36.350Z,19.70
2018-04-30T07:32:04.392Z,19.10
2018-04-30T07:37:00.846Z,17.70
2018-04-30T07:39:28.910Z,18.00
2018-04-30T07:41:56.302Z,18.60
2018-04-30T07:44:24.351Z,19.80
2018-04-30T07:49:20.155Z,20.40
2018-04-30T07:51:48.147Z,19.80
2018-04-30T07:54:15.434Z,19.60
2018-04-30T07:56:42.711Z,20.00
2018-04-30T07:59:10.115Z,18.90
2018-04-30T08:01:37.450Z,18.60
2018-04-30T08:04:04.771Z,19.60
2018-04-30T08:09:00.448Z,20.70
2018-04-30T08:11:28.724Z,21.30
2018-04-30T08:13:56.167Z,22.40
2018-04-30T08:16:23.524Z,21.50
2018-04-30T08:21:19.221Z,21.40
2018-04-30T08:23:47.295Z,22.40
2018-04-30T08:26:15.355Z,23.20
2018-04-30T08:28:42.798Z,22.00
2018-04-30T08:31:10.218Z,21.80
2018-04-30T08:36:05.940Z,22.50
2018-04-30T08:41:01.453Z,21.50
2018-04-30T08:43:29.552Z,21.10
2018-04-30T08:45:56.854Z,21.00
2018-04-30T08:48:24.973Z,21.50
2018-04-30T08:50:53.050Z,21.00
2018-04-30T08:53:20.427Z,21.60
2018-04-30T08:55:47.800Z,21.60
2018-04-30T08:58:15.148Z,22.50
2018-04-30T09:00:42.553Z,22.30
2018-04-30T09:03:09.752Z,22.50
2018-04-30T09:05:37.199Z,21.40
2018-04-30T09:10:32.786Z,22.40
2018-04-30T09:15:28.343Z,20.90
2018-04-30T09:17:55.628Z,21.10
2018-04-30T09:20:23.660Z,22.00
2018-04-30T09:22:51.723Z,22.50
2018-04-30T09:25:19.121Z,22.40
2018-04-30T09:27:46.619Z,22.90
2018-04-30T09:30:14.880Z,22.10
2018-04-30T09:32:42.181Z,22.60
2018-04-30T09:35:09.556Z,21.30
2018-04-30T09:40:05.289Z,24.30
2018-04-30T09:42:32.829Z,25.80
2018-04-30T09:47:28.426Z,24.80
2018-04-30T09:57:20.889Z,25.30
2018-04-30T10:02:17.379Z,27.70
2018-04-30T10:07:13.263Z,27.50
2018-04-30T10:09:40.706Z,28.30
2018-04-30T10:14:36.447Z,27.00
2018-04-30T10:22:01.288Z,25.00
2018-04-30T10:24:28.642Z,26.10
2018-04-30T10:29:24.280Z,27.10
2018-04-30T10:31:51.713Z,26.10
2018-04-30T10:34:19.898Z,25.90
2018-04-30T10:36:48.032Z,26.70
2018-04-30T10:39:15.431Z,25.90
2018-04-30T10:44:11.897Z,25.70
2018-04-30T10:49:07.710Z,24.50
2018-04-30T10:51:35.234Z,24.60
2018-04-30T10:54:03.261Z,25.70
2018-04-30T10:56:31.469Z,27.70
2018-04-30T10:58:58.754Z,28.50
2018-04-30T11:01:26.806Z,27.50
2018-04-30T11:03:54.907Z,26.40
2018-04-30T11:06:22.289Z,26.10
2018-04-30T11:11:17.856Z,26.00
2018-04-30T11:13:45.162Z,27.30
2018-04-30T11:18:40.758Z,29.70
2018-04-30T11:21:08.075Z,30.10
2018-04-30T11:23:36.130Z,28.50
2018-04-30T11:28:32.068Z,27.90
2018-04-30T11:30:59.479Z,29.50
2018-04-30T11:33:26.843Z,29.30
2018-04-30T11:35:55.440Z,30.40
2018-04-30T11:40:51.012Z,30.20
2018-04-30T11:48:14.904Z,29.10
2018-04-30T11:50:42.238Z,29.60
2018-04-30T11:55:37.833Z,29.30
2018-04-30T11:58:06.014Z,28.60
2018-04-30T12:03:02.391Z,28.90
2018-04-30T12:07:58.308Z,27.70
2018-04-30T12:10:25.808Z,27.10
2018-04-30T12:12:53.235Z,26.80
2018-04-30T12:15:21.311Z,25.40
2018-04-30T12:17:48.774Z,24.80
2018-04-30T12:20:16.190Z,24.40
2018-04-30T12:25:15.582Z,28.00
2018-04-30T12:27:42.893Z,29.10
2018-04-30T12:30:11.153Z,29.50
2018-04-30T12:32:39.242Z,29.90
2018-04-30T12:35:06.562Z,30.20
2018-04-30T12:40:02.216Z,30.70
2018-04-30T12:42:30.266Z,29.60
2018-04-30T12:44:57.791Z,28.50
2018-04-30T12:47:25.140Z,28.80
2018-04-30T12:49:57.019Z,30.20
2018-04-30T12:52:28.562Z,29.70
2018-04-30T12:59:54.451Z,26.90
2018-04-30T13:04:50.582Z,26.80
2018-04-30T13:07:17.942Z,27.30
2018-04-30T13:14:45.603Z,28.40
2018-04-30T13:17:14.739Z,28.90
2018-04-30T13:19:46.133Z,28.10
2018-04-30T13:22:13.465Z,28.60
2018-04-30T13:27:10.735Z,26.80
2018-04-30T13:29:38.070Z,26.60
2018-04-30T13:34:33.675Z,26.90
2018-04-30T13:37:01.995Z,25.40
2018-04-30T13:39:30.263Z,25.30
2018-04-30T13:42:01.372Z,26.30
2018-04-30T13:46:58.846Z,25.70
2018-04-30T13:54:25.168Z,25.90
2018-04-30T13:56:52.499Z,25.40
2018-04-30T13:59:22.379Z,24.80
2018-04-30T14:04:19.988Z,25.80
2018-04-30T14:06:47.347Z,25.80
2018-04-30T14:09:15.528Z,26.50
2018-04-30T14:11:44.279Z,26.60
2018-04-30T14:14:12.443Z,26.60
2018-04-30T14:19:12.938Z,26.90
2018-04-30T14:21:41.552Z,25.70
2018-04-30T14:24:08.892Z,26.70
2018-04-30T14:26:38.185Z,26.90
2018-04-30T14:29:06.330Z,26.00
2018-04-30T14:31:34.800Z,25.90
2018-04-30T14:34:02.706Z,24.50
2018-04-30T14:36:31.764Z,24.30
2018-04-30T14:39:00.111Z,23.50
2018-04-30T14:41:27.455Z,22.70
2018-04-30T14:43:55.538Z,22.70
2018-04-30T14:46:23.217Z,23.80
2018-04-30T14:51:18.863Z,23.60
2018-04-30T14:56:14.355Z,24.00
2018-04-30T14:58:42.531Z,24.00
2018-04-30T15:01:13.410Z,23.60
2018-04-30T15:03:42.243Z,24.00
2018-04-30T15:06:10.627Z,22.50
2018-04-30T15:08:38.703Z,21.80
2018-04-30T15:11:08.955Z,22.20
2018-04-30T15:13:36.448Z,23.20
2018-04-30T15:16:05.292Z,23.90
2018-04-30T15:18:36.496Z,23.60
2018-04-30T15:23:32.082Z,23.90
2018-04-30T15:26:01.262Z,22.50
2018-04-30T15:28:29.353Z,23.00
2018-04-30T15:30:59.155Z,23.10
2018-04-30T15:33:36.553Z,22.60
2018-04-30T15:36:05.270Z,24.10
2018-04-30T15:38:32.585Z,25.10
2018-04-30T15:41:00.711Z,24.90
2018-04-30T15:43:28.899Z,24.50
2018-04-30T15:45:58.006Z,23.60
2018-04-30T15:48:29.819Z,22.30
2018-04-30T15:51:01.367Z,21.70
2018-04-30T15:53:28.759Z,22.00
2018-04-30T15:55:56.984Z,22.40
2018-04-30T15:58:24.314Z,22.60
2018-04-30T16:00:52.691Z,21.90
2018-04-30T16:03:20.867Z,21.00
2018-04-30T16:05:48.179Z,20.70
2018-04-30T16:08:18.771Z,20.90
2018-04-30T16:10:48.009Z,20.60
2018-04-30T16:13:19.045Z,21.50
2018-04-30T16:15:46.471Z,21.80
2018-04-30T16:18:16.610Z,21.70
2018-04-30T16:20:50.366Z,21.50
2018-04-30T16:23:19.737Z,21.40
2018-04-30T16:25:47.145Z,21.30
2018-04-30T16:28:14.453Z,20.70
2018-04-30T16:35:38.338Z,20.10
2018-04-30T16:40:35.070Z,19.20
2018-04-30T16:43:02.461Z,19.20
2018-04-30T16:45:29.858Z,19.10
2018-04-30T16:55:22.807Z,19.20
2018-04-30T16:57:50.861Z,19.30
2018-04-30T17:00:19.852Z,19.10
2018-04-30T17:07:44.071Z,19.70
2018-04-30T17:10:11.354Z,21.00
2018-04-30T17:15:07.775Z,20.10
2018-04-30T17:17:35.010Z,20.70
2018-04-30T17:22:31.099Z,20.70
2018-04-30T17:27:26.778Z,20.60
2018-04-30T17:32:23.260Z,19.70
2018-04-30T17:34:50.566Z,20.00
2018-04-30T17:39:46.142Z,19.70
2018-04-30T17:44:41.714Z,19.60
2018-04-30T17:49:37.576Z,19.00
2018-04-30T17:57:02.180Z,18.60
2018-04-30T17:59:30.222Z,18.90
2018-04-30T18:04:25.710Z,19.20
2018-04-30T18:06:53.908Z,18.80
2018-04-30T18:09:21.218Z,19.10
2018-04-30T18:11:48.530Z,19.10
2018-04-30T18:16:44.198Z,20.00
2018-04-30T18:19:12.247Z,20.20
2018-04-30T18:21:40.260Z,19.70
2018-04-30T18:24:07.698Z,19.20
2018-04-30T18:26:35.069Z,18.70
2018-04-30T18:31:30.703Z,19.20
2018-04-30T18:38:54.367Z,18.50
2018-04-30T18:41:22.389Z,18.60
2018-04-30T18:43:50.440Z,18.40
2018-04-30T18:48:46.078Z,18.90
2018-04-30T18:51:14.164Z,19.00
2018-04-30T18:56:09.735Z,19.40
2018-04-30T18:58:37.750Z,19.80
2018-04-30T19:01:05.173Z,20.90
2018-04-30T19:03:33.188Z,21.80
2018-04-30T19:06:00.611Z,22.70
2018-04-30T19:08:27.929Z,23.20
2018-04-30T19:10:56.003Z,23.50
2018-04-30T19:13:24.026Z,23.60
2018-04-30T19:15:53.559Z,23.80
2018-04-30T19:20:49.187Z,23.50
2018-04-30T19:23:16.505Z,23.10
2018-04-30T19:25:44.741Z,21.70
2018-04-30T19:30:40.389Z,20.60
2018-04-30T19:33:07.970Z,20.60
2018-04-30T19:35:36.008Z,19.60
2018-04-30T19:38:03.473Z,20.00
2018-04-30T19:40:31.546Z,20.00
2018-04-30T19:42:59.707Z,20.00
2018-04-30T19:45:27.884Z,21.00
2018-04-30T19:52:53.456Z,20.90
2018-04-30T19:55:20.766Z,20.80
2018-04-30T19:57:48.120Z,20.70
2018-04-30T20:02:44.502Z,19.80
2018-04-30T20:05:11.814Z,19.60
2018-04-30T20:07:39.902Z,19.20
2018-04-30T20:10:07.296Z,18.70
2018-04-30T20:15:03.714Z,18.20
2018-04-30T20:17:32.040Z,18.30
2018-04-30T20:20:00.278Z,18.40
2018-04-30T20:22:28.474Z,18.40
2018-04-30T20:24:55.821Z,18.60
2018-04-30T20:29:53.687Z,18.40
2018-04-30T20:32:24.908Z,18.40
2018-04-30T20:34:52.277Z,18.10
2018-04-30T20:37:20.611Z,18.10
2018-04-30T20:39:47.963Z,17.60
2018-04-30T20:47:12.103Z,17.00
2018-04-30T20:49:39.479Z,16.90
2018-04-30T20:52:11.087Z,17.10
2018-04-30T20:54:38.432Z,17.70
2018-04-30T20:57:07.412Z,17.80
2018-04-30T20:59:37.713Z,17.80
2018-04-30T21:02:05.774Z,18.00
2018-04-30T21:04:35.222Z,18.10
2018-04-30T21:07:05.403Z,17.90
2018-04-30T21:09:34.603Z,18.10
2018-04-30T21:12:02.094Z,17.80
2018-04-30T21:14:29.592Z,17.50
2018-04-30T21:16:57.623Z,17.50
2018-04-30T21:19:25.020Z,17.10
2018-04-30T21:21:53.994Z,16.80
2018-04-30T21:24:22.181Z,17.10
2018-04-30T21:26:49.930Z,17.00
2018-04-30T21:29:17.483Z,16.70
2018-04-30T21:39:11.111Z,16.40
2018-04-30T21:41:39.383Z,16.60
2018-04-30T21:44:06.735Z,16.60
2018-04-30T21:46:35.793Z,16.20
2018-04-30T21:49:03.267Z,16.10
2018-04-30T21:53:59.059Z,16.80
2018-04-30T21:56:26.515Z,16.90
2018-04-30T22:03:50.474Z,17.20
2018-04-30T22:08:48.808Z,17.10
2018-04-30T22:13:46.398Z,16.80
2018-04-30T22:16:13.752Z,16.70
2018-04-30T22:18:41.179Z,16.70
2018-04-30T22:21:12.293Z,16.60
2018-04-30T22:23:40.564Z,16.60
2018-04-30T22:26:08.343Z,16.60
2018-04-30T22:36:00.977Z,16.70
2018-04-30T22:40:59.614Z,16.20
2018-04-30T22:43:29.020Z,16.10
2018-04-30T22:45:57.293Z,16.10
2018-04-30T22:48:26.406Z,16.10
2018-04-30T22:50:53.745Z,16.20
2018-04-30T22:55:50.255Z,16.20
2018-04-30T22:58:17.658Z,16.30
2018-04-30T23:00:46.178Z,16.50
2018-04-30T23:03:13.620Z,16.80
2018-04-30T23:05:41.083Z,16.60
2018-04-30T23:08:10.430Z,16.50
2018-04-30T23:13:06.265Z,16.80
2018-04-30T23:15:34.560Z,16.80
2018-04-30T23:18:02.146Z,17.00
2018-04-30T23:20:30.298Z,17.10
2018-04-30T23:22:57.815Z,17.10
2018-04-30T23:27:56.371Z,16.70
2018-04-30T23:32:53.164Z,16.50
2018-04-30T23:35:21.632Z,16.60
2018-04-30T23:37:50.070Z,16.80
2018-04-30T23:40:19.138Z,16.80
2018-04-30T23:42:46.919Z,16.40
2018-04-30T23:45:16.990Z,16.40
2018-04-30T23:47:45.110Z,16.60
2018-04-30T23:50:12.655Z,16.70
2018-04-30T23:55:09.198Z,16.30
2018-04-30T23:57:36.798Z,16.30
